sensor_id;sensor_type;location;lat;lon;timestamp;temperature;humidity
23869;DHT22;12115;47.128;15.422;2023-04-08T00:02:17;7.40;91.50
23869;DHT22;12115;47.128;15.422;2023-04-08T00:04:44;7.40;91.50
23869;DHT22;12115;47.128;15.422;2023-04-08T00:07:12;7.40;91.80
23869;DHT22;12115;47.128;15.422;2023-04-08T00:09:39;7.30;92.00
23869;DHT22;12115;47.128;15.422;2023-04-08T00:12:07;7.30;92.40
23869;DHT22;12115;47.128;15.422;2023-04-08T00:14:34;7.30;92.50
23869;DHT22;12115;47.128;15.422;2023-04-08T00:17:04;7.30;92.70
23869;DHT22;12115;47.128;15.422;2023-04-08T00:19:32;7.30;93.10
23869;DHT22;12115;47.128;15.422;2023-04-08T00:22:02;7.30;93.30
23869;DHT22;12115;47.128;15.422;2023-04-08T00:24:29;7.30;92.80
23869;DHT22;12115;47.128;15.422;2023-04-08T00:26:57;7.30;92.50
23869;DHT22;12115;47.128;15.422;2023-04-08T00:29:25;7.30;92.70
23869;DHT22;12115;47.128;15.422;2023-04-08T00:32:07;7.20;93.90
23869;DHT22;12115;47.128;15.422;2023-04-08T00:34:35;7.10;95.10
23869;DHT22;12115;47.128;15.422;2023-04-08T00:37:03;7.20;94.50
23869;DHT22;12115;47.128;15.422;2023-04-08T00:39:30;7.20;94.10
23869;DHT22;12115;47.128;15.422;2023-04-08T00:41:57;7.20;93.90
23869;DHT22;12115;47.128;15.422;2023-04-08T00:44:28;7.20;93.70
23869;DHT22;12115;47.128;15.422;2023-04-08T00:46:59;7.20;94.00
23869;DHT22;12115;47.128;15.422;2023-04-08T00:49:26;7.20;94.00
23869;DHT22;12115;47.128;15.422;2023-04-08T00:51:54;7.10;94.10
23869;DHT22;12115;47.128;15.422;2023-04-08T00:54:22;7.10;93.80
23869;DHT22;12115;47.128;15.422;2023-04-08T00:56:49;7.10;94.40
23869;DHT22;12115;47.128;15.422;2023-04-08T00:59:17;7.10;94.90
23869;DHT22;12115;47.128;15.422;2023-04-08T01:02:03;7.10;94.80
23869;DHT22;12115;47.128;15.422;2023-04-08T01:04:54;7.10;94.40
23869;DHT22;12115;47.128;15.422;2023-04-08T01:07:38;7.10;94.50
23869;DHT22;12115;47.128;15.422;2023-04-08T01:10:21;7.10;94.30
23869;DHT22;12115;47.128;15.422;2023-04-08T01:12:57;7.10;94.80
23869;DHT22;12115;47.128;15.422;2023-04-08T01:15:27;7.00;94.90
23869;DHT22;12115;47.128;15.422;2023-04-08T01:17:58;7.00;95.00
23869;DHT22;12115;47.128;15.422;2023-04-08T01:20:26;7.00;95.00
23869;DHT22;12115;47.128;15.422;2023-04-08T01:25:32;7.00;94.90
23869;DHT22;12115;47.128;15.422;2023-04-08T01:28:04;7.00;94.80
23869;DHT22;12115;47.128;15.422;2023-04-08T01:30:33;7.00;95.00
23869;DHT22;12115;47.128;15.422;2023-04-08T01:33:02;7.00;95.40
23869;DHT22;12115;47.128;15.422;2023-04-08T01:35:31;7.00;95.30
23869;DHT22;12115;47.128;15.422;2023-04-08T01:37:59;7.00;95.30
23869;DHT22;12115;47.128;15.422;2023-04-08T01:40:31;7.00;95.00
23869;DHT22;12115;47.128;15.422;2023-04-08T01:43:03;6.90;95.30
23869;DHT22;12115;47.128;15.422;2023-04-08T01:45:32;6.90;96.40
23869;DHT22;12115;47.128;15.422;2023-04-08T01:48:00;6.90;96.20
23869;DHT22;12115;47.128;15.422;2023-04-08T01:50:33;6.90;96.20
23869;DHT22;12115;47.128;15.422;2023-04-08T01:53:18;6.90;95.60
23869;DHT22;12115;47.128;15.422;2023-04-08T01:55:48;7.00;95.30
23869;DHT22;12115;47.128;15.422;2023-04-08T01:58:19;7.00;95.20
23869;DHT22;12115;47.128;15.422;2023-04-08T02:00:54;7.00;95.90
23869;DHT22;12115;47.128;15.422;2023-04-08T02:03:24;6.90;96.10
23869;DHT22;12115;47.128;15.422;2023-04-08T02:05:57;6.90;96.00
23869;DHT22;12115;47.128;15.422;2023-04-08T02:08:25;6.90;96.30
23869;DHT22;12115;47.128;15.422;2023-04-08T02:10:56;6.90;95.90
23869;DHT22;12115;47.128;15.422;2023-04-08T02:13:43;6.90;95.70
23869;DHT22;12115;47.128;15.422;2023-04-08T02:19:08;6.90;95.90
23869;DHT22;12115;47.128;15.422;2023-04-08T02:21:43;6.90;95.70
23869;DHT22;12115;47.128;15.422;2023-04-08T02:24:13;6.90;96.40
23869;DHT22;12115;47.128;15.422;2023-04-08T02:26:43;6.90;96.80
23869;DHT22;12115;47.128;15.422;2023-04-08T02:29:13;6.80;98.80
23869;DHT22;12115;47.128;15.422;2023-04-08T02:31:42;6.80;98.20
23869;DHT22;12115;47.128;15.422;2023-04-08T02:34:13;6.80;97.50
23869;DHT22;12115;47.128;15.422;2023-04-08T02:36:42;6.80;97.20
23869;DHT22;12115;47.128;15.422;2023-04-08T02:39:12;6.90;96.70
23869;DHT22;12115;47.128;15.422;2023-04-08T02:41:42;6.90;97.30
23869;DHT22;12115;47.128;15.422;2023-04-08T02:44:10;6.90;97.30
23869;DHT22;12115;47.128;15.422;2023-04-08T02:46:40;6.80;97.10
23869;DHT22;12115;47.128;15.422;2023-04-08T02:49:07;6.80;97.60
23869;DHT22;12115;47.128;15.422;2023-04-08T02:51:39;6.80;97.90
23869;DHT22;12115;47.128;15.422;2023-04-08T02:54:19;6.80;97.00
23869;DHT22;12115;47.128;15.422;2023-04-08T02:56:47;6.80;98.70
23869;DHT22;12115;47.128;15.422;2023-04-08T02:59:14;6.80;99.00
23869;DHT22;12115;47.128;15.422;2023-04-08T03:01:43;6.80;98.40
23869;DHT22;12115;47.128;15.422;2023-04-08T03:04:13;6.80;97.70
23869;DHT22;12115;47.128;15.422;2023-04-08T03:06:41;6.80;97.40
23869;DHT22;12115;47.128;15.422;2023-04-08T03:09:08;6.90;97.10
23869;DHT22;12115;47.128;15.422;2023-04-08T03:11:35;6.80;97.10
23869;DHT22;12115;47.128;15.422;2023-04-08T03:14:03;6.80;96.90
23869;DHT22;12115;47.128;15.422;2023-04-08T03:16:30;6.80;97.40
23869;DHT22;12115;47.128;15.422;2023-04-08T03:18:58;6.70;98.60
23869;DHT22;12115;47.128;15.422;2023-04-08T03:21:25;6.70;99.20
23869;DHT22;12115;47.128;15.422;2023-04-08T03:23:53;6.70;99.90
23869;DHT22;12115;47.128;15.422;2023-04-08T03:26:20;6.70;99.80
23869;DHT22;12115;47.128;15.422;2023-04-08T03:28:48;6.70;99.10
23869;DHT22;12115;47.128;15.422;2023-04-08T03:31:16;6.80;98.80
23869;DHT22;12115;47.128;15.422;2023-04-08T03:33:43;6.80;98.70
23869;DHT22;12115;47.128;15.422;2023-04-08T03:36:11;6.80;98.60
23869;DHT22;12115;47.128;15.422;2023-04-08T03:38:38;6.80;98.70
23869;DHT22;12115;47.128;15.422;2023-04-08T03:41:05;6.80;98.60
23869;DHT22;12115;47.128;15.422;2023-04-08T03:43:34;6.80;98.50
23869;DHT22;12115;47.128;15.422;2023-04-08T03:46:03;6.80;98.70
23869;DHT22;12115;47.128;15.422;2023-04-08T03:48:31;6.80;98.20
23869;DHT22;12115;47.128;15.422;2023-04-08T03:50:59;6.80;98.30
23869;DHT22;12115;47.128;15.422;2023-04-08T03:53:26;6.70;98.20
23869;DHT22;12115;47.128;15.422;2023-04-08T03:55:56;6.70;97.80
23869;DHT22;12115;47.128;15.422;2023-04-08T03:58:23;6.60;97.90
23869;DHT22;12115;47.128;15.422;2023-04-08T04:00:51;6.60;97.70
23869;DHT22;12115;47.128;15.422;2023-04-08T04:03:19;6.60;97.80
23869;DHT22;12115;47.128;15.422;2023-04-08T04:05:48;6.50;98.00
23869;DHT22;12115;47.128;15.422;2023-04-08T04:08:15;6.50;98.40
23869;DHT22;12115;47.128;15.422;2023-04-08T04:10:43;6.40;99.30
23869;DHT22;12115;47.128;15.422;2023-04-08T04:13:10;6.40;99.50
23869;DHT22;12115;47.128;15.422;2023-04-08T04:15:39;6.40;99.20
23869;DHT22;12115;47.128;15.422;2023-04-08T04:18:07;6.40;98.90
23869;DHT22;12115;47.128;15.422;2023-04-08T04:20:34;6.50;99.50
23869;DHT22;12115;47.128;15.422;2023-04-08T04:23:04;6.50;99.10
23869;DHT22;12115;47.128;15.422;2023-04-08T04:25:31;6.50;99.60
23869;DHT22;12115;47.128;15.422;2023-04-08T04:28:00;6.50;99.90
23869;DHT22;12115;47.128;15.422;2023-04-08T04:30:28;6.40;99.90
23869;DHT22;12115;47.128;15.422;2023-04-08T04:33:08;6.40;99.90
23869;DHT22;12115;47.128;15.422;2023-04-08T04:35:36;6.50;99.90
23869;DHT22;12115;47.128;15.422;2023-04-08T04:38:10;6.50;99.90
23869;DHT22;12115;47.128;15.422;2023-04-08T04:40:39;6.50;99.90
23869;DHT22;12115;47.128;15.422;2023-04-08T04:43:15;6.50;99.90
23869;DHT22;12115;47.128;15.422;2023-04-08T04:49:01;6.50;99.90
23869;DHT22;12115;47.128;15.422;2023-04-08T04:51:30;6.50;99.90
23869;DHT22;12115;47.128;15.422;2023-04-08T04:53:59;6.50;99.90
23869;DHT22;12115;47.128;15.422;2023-04-08T04:56:27;6.50;99.90
23869;DHT22;12115;47.128;15.422;2023-04-08T04:58:55;6.50;99.90
23869;DHT22;12115;47.128;15.422;2023-04-08T05:01:25;6.60;99.90
23869;DHT22;12115;47.128;15.422;2023-04-08T05:03:56;6.50;99.90
23869;DHT22;12115;47.128;15.422;2023-04-08T05:06:24;6.50;99.90
23869;DHT22;12115;47.128;15.422;2023-04-08T05:08:53;6.60;99.90
23869;DHT22;12115;47.128;15.422;2023-04-08T05:11:20;6.60;99.90
23869;DHT22;12115;47.128;15.422;2023-04-08T05:13:48;6.60;99.90
23869;DHT22;12115;47.128;15.422;2023-04-08T05:16:16;6.60;99.90
23869;DHT22;12115;47.128;15.422;2023-04-08T05:18:44;6.60;99.90
23869;DHT22;12115;47.128;15.422;2023-04-08T05:21:11;6.60;99.90
23869;DHT22;12115;47.128;15.422;2023-04-08T05:23:38;6.60;99.90
23869;DHT22;12115;47.128;15.422;2023-04-08T05:26:07;6.60;99.90
23869;DHT22;12115;47.128;15.422;2023-04-08T05:28:35;6.50;99.90
23869;DHT22;12115;47.128;15.422;2023-04-08T05:31:03;6.50;99.90
23869;DHT22;12115;47.128;15.422;2023-04-08T05:33:30;6.50;99.90
23869;DHT22;12115;47.128;15.422;2023-04-08T05:35:58;6.50;99.90
23869;DHT22;12115;47.128;15.422;2023-04-08T05:38:25;6.40;99.90
23869;DHT22;12115;47.128;15.422;2023-04-08T05:40:53;6.30;99.90
23869;DHT22;12115;47.128;15.422;2023-04-08T05:43:20;6.30;99.90
23869;DHT22;12115;47.128;15.422;2023-04-08T05:45:48;6.20;99.90
23869;DHT22;12115;47.128;15.422;2023-04-08T05:48:15;6.20;99.90
23869;DHT22;12115;47.128;15.422;2023-04-08T05:50:43;6.20;99.90
23869;DHT22;12115;47.128;15.422;2023-04-08T05:53:11;6.30;99.90
23869;DHT22;12115;47.128;15.422;2023-04-08T05:55:41;6.30;99.90
23869;DHT22;12115;47.128;15.422;2023-04-08T05:58:08;6.20;99.90
23869;DHT22;12115;47.128;15.422;2023-04-08T06:00:36;6.30;99.90
23869;DHT22;12115;47.128;15.422;2023-04-08T06:03:03;6.30;99.90
23869;DHT22;12115;47.128;15.422;2023-04-08T06:05:31;6.30;99.90
23869;DHT22;12115;47.128;15.422;2023-04-08T06:08:24;6.30;99.90
23869;DHT22;12115;47.128;15.422;2023-04-08T06:10:51;6.30;99.90
23869;DHT22;12115;47.128;15.422;2023-04-08T06:13:19;6.30;99.90
23869;DHT22;12115;47.128;15.422;2023-04-08T06:15:48;6.40;99.90
23869;DHT22;12115;47.128;15.422;2023-04-08T06:18:16;6.40;99.90
23869;DHT22;12115;47.128;15.422;2023-04-08T06:20:43;6.40;99.90
23869;DHT22;12115;47.128;15.422;2023-04-08T06:23:11;6.40;99.90
23869;DHT22;12115;47.128;15.422;2023-04-08T06:25:39;6.40;99.90
23869;DHT22;12115;47.128;15.422;2023-04-08T06:28:06;6.40;99.90
23869;DHT22;12115;47.128;15.422;2023-04-08T06:30:33;6.40;99.90
23869;DHT22;12115;47.128;15.422;2023-04-08T06:33:01;6.40;99.90
23869;DHT22;12115;47.128;15.422;2023-04-08T06:35:33;6.40;99.90
23869;DHT22;12115;47.128;15.422;2023-04-08T06:38:00;6.40;99.90
23869;DHT22;12115;47.128;15.422;2023-04-08T06:40:28;6.30;99.90
23869;DHT22;12115;47.128;15.422;2023-04-08T06:43:21;6.30;99.90
23869;DHT22;12115;47.128;15.422;2023-04-08T06:45:49;6.30;99.90
23869;DHT22;12115;47.128;15.422;2023-04-08T06:48:16;6.20;99.90
23869;DHT22;12115;47.128;15.422;2023-04-08T06:50:44;6.20;99.90
23869;DHT22;12115;47.128;15.422;2023-04-08T06:53:11;6.20;99.90
23869;DHT22;12115;47.128;15.422;2023-04-08T06:55:39;6.30;99.90
23869;DHT22;12115;47.128;15.422;2023-04-08T06:58:07;6.20;99.90
23869;DHT22;12115;47.128;15.422;2023-04-08T07:00:34;6.20;99.90
23869;DHT22;12115;47.128;15.422;2023-04-08T07:03:01;6.10;99.90
23869;DHT22;12115;47.128;15.422;2023-04-08T07:05:29;6.20;99.90
23869;DHT22;12115;47.128;15.422;2023-04-08T07:07:57;6.20;99.90
23869;DHT22;12115;47.128;15.422;2023-04-08T07:10:25;6.20;99.90
23869;DHT22;12115;47.128;15.422;2023-04-08T07:12:53;6.30;99.90
23869;DHT22;12115;47.128;15.422;2023-04-08T07:15:20;6.20;99.90
23869;DHT22;12115;47.128;15.422;2023-04-08T07:17:48;6.20;99.90
23869;DHT22;12115;47.128;15.422;2023-04-08T07:20:15;6.20;99.90
23869;DHT22;12115;47.128;15.422;2023-04-08T07:22:42;6.30;99.90
23869;DHT22;12115;47.128;15.422;2023-04-08T07:25:11;6.20;99.90
23869;DHT22;12115;47.128;15.422;2023-04-08T07:27:38;6.20;99.90
23869;DHT22;12115;47.128;15.422;2023-04-08T07:30:06;6.20;99.90
23869;DHT22;12115;47.128;15.422;2023-04-08T07:32:34;6.20;99.90
23869;DHT22;12115;47.128;15.422;2023-04-08T07:35:03;6.20;99.90
23869;DHT22;12115;47.128;15.422;2023-04-08T07:37:30;6.20;99.90
23869;DHT22;12115;47.128;15.422;2023-04-08T07:39:58;6.20;99.90
23869;DHT22;12115;47.128;15.422;2023-04-08T07:42:25;6.20;99.90
23869;DHT22;12115;47.128;15.422;2023-04-08T07:44:54;6.20;99.90
23869;DHT22;12115;47.128;15.422;2023-04-08T07:47:22;6.20;99.90
23869;DHT22;12115;47.128;15.422;2023-04-08T07:49:49;6.10;99.90
23869;DHT22;12115;47.128;15.422;2023-04-08T07:52:17;6.10;99.90
23869;DHT22;12115;47.128;15.422;2023-04-08T07:54:44;6.20;99.90
23869;DHT22;12115;47.128;15.422;2023-04-08T07:57:12;6.20;99.90
23869;DHT22;12115;47.128;15.422;2023-04-08T07:59:40;6.20;99.90
23869;DHT22;12115;47.128;15.422;2023-04-08T08:02:07;6.10;99.90
23869;DHT22;12115;47.128;15.422;2023-04-08T08:04:35;6.10;99.90
23869;DHT22;12115;47.128;15.422;2023-04-08T08:07:03;6.10;99.90
23869;DHT22;12115;47.128;15.422;2023-04-08T08:09:30;6.10;99.90
23869;DHT22;12115;47.128;15.422;2023-04-08T08:11:58;6.10;99.90
23869;DHT22;12115;47.128;15.422;2023-04-08T08:14:25;6.10;99.90
23869;DHT22;12115;47.128;15.422;2023-04-08T08:16:53;6.10;99.90
23869;DHT22;12115;47.128;15.422;2023-04-08T08:19:20;6.10;99.90
23869;DHT22;12115;47.128;15.422;2023-04-08T08:21:49;6.20;99.90
23869;DHT22;12115;47.128;15.422;2023-04-08T08:24:16;6.20;99.90
23869;DHT22;12115;47.128;15.422;2023-04-08T08:26:45;6.20;99.90
23869;DHT22;12115;47.128;15.422;2023-04-08T08:29:13;6.20;99.90
23869;DHT22;12115;47.128;15.422;2023-04-08T08:31:41;6.20;99.90
23869;DHT22;12115;47.128;15.422;2023-04-08T08:34:08;6.30;99.90
23869;DHT22;12115;47.128;15.422;2023-04-08T08:36:35;6.30;99.90
23869;DHT22;12115;47.128;15.422;2023-04-08T08:39:03;6.30;99.90
23869;DHT22;12115;47.128;15.422;2023-04-08T08:41:34;6.10;99.90
23869;DHT22;12115;47.128;15.422;2023-04-08T08:44:04;6.00;99.90
23869;DHT22;12115;47.128;15.422;2023-04-08T08:46:33;6.10;99.90
23869;DHT22;12115;47.128;15.422;2023-04-08T08:49:03;6.10;99.90
23869;DHT22;12115;47.128;15.422;2023-04-08T08:51:30;6.20;99.90
23869;DHT22;12115;47.128;15.422;2023-04-08T08:54:02;6.20;99.90
23869;DHT22;12115;47.128;15.422;2023-04-08T08:56:31;6.10;99.90
23869;DHT22;12115;47.128;15.422;2023-04-08T08:58:59;6.10;99.90
23869;DHT22;12115;47.128;15.422;2023-04-08T09:01:37;6.00;99.90
23869;DHT22;12115;47.128;15.422;2023-04-08T09:04:18;6.00;99.90
23869;DHT22;12115;47.128;15.422;2023-04-08T09:06:48;6.10;99.90
23869;DHT22;12115;47.128;15.422;2023-04-08T09:09:17;6.00;99.90
23869;DHT22;12115;47.128;15.422;2023-04-08T09:11:45;6.00;99.90
23869;DHT22;12115;47.128;15.422;2023-04-08T09:14:17;6.00;99.90
23869;DHT22;12115;47.128;15.422;2023-04-08T09:16:45;6.00;99.90
23869;DHT22;12115;47.128;15.422;2023-04-08T09:19:13;6.10;99.90
23869;DHT22;12115;47.128;15.422;2023-04-08T09:21:41;6.20;99.90
23869;DHT22;12115;47.128;15.422;2023-04-08T09:24:09;6.20;99.90
23869;DHT22;12115;47.128;15.422;2023-04-08T09:27:32;6.20;99.90
23869;DHT22;12115;47.128;15.422;2023-04-08T09:30:13;6.20;99.90
23869;DHT22;12115;47.128;15.422;2023-04-08T09:33:05;6.20;99.90
23869;DHT22;12115;47.128;15.422;2023-04-08T09:35:33;6.10;99.90
23869;DHT22;12115;47.128;15.422;2023-04-08T09:38:01;6.30;99.90
23869;DHT22;12115;47.128;15.422;2023-04-08T09:40:33;6.40;99.90
23869;DHT22;12115;47.128;15.422;2023-04-08T09:43:04;6.40;99.90
23869;DHT22;12115;47.128;15.422;2023-04-08T09:45:33;6.40;99.90
23869;DHT22;12115;47.128;15.422;2023-04-08T09:48:09;6.40;99.90
23869;DHT22;12115;47.128;15.422;2023-04-08T09:50:49;6.40;99.90
23869;DHT22;12115;47.128;15.422;2023-04-08T09:53:29;6.30;99.90
23869;DHT22;12115;47.128;15.422;2023-04-08T09:55:59;6.30;99.90
23869;DHT22;12115;47.128;15.422;2023-04-08T09:58:28;6.40;99.90
23869;DHT22;12115;47.128;15.422;2023-04-08T10:00:55;6.30;99.90
23869;DHT22;12115;47.128;15.422;2023-04-08T10:03:36;6.20;99.90
23869;DHT22;12115;47.128;15.422;2023-04-08T10:06:09;6.30;99.90
23869;DHT22;12115;47.128;15.422;2023-04-08T10:08:45;6.30;99.90
23869;DHT22;12115;47.128;15.422;2023-04-08T10:11:16;6.40;99.90
23869;DHT22;12115;47.128;15.422;2023-04-08T10:13:44;6.40;99.90
23869;DHT22;12115;47.128;15.422;2023-04-08T10:16:21;6.40;99.90
23869;DHT22;12115;47.128;15.422;2023-04-08T10:18:53;6.30;99.90
23869;DHT22;12115;47.128;15.422;2023-04-08T10:21:50;6.40;99.90
23869;DHT22;12115;47.128;15.422;2023-04-08T10:24:18;6.30;99.90
23869;DHT22;12115;47.128;15.422;2023-04-08T10:26:50;6.40;99.90
23869;DHT22;12115;47.128;15.422;2023-04-08T10:29:30;6.40;99.90
23869;DHT22;12115;47.128;15.422;2023-04-08T10:31:57;6.40;99.90
23869;DHT22;12115;47.128;15.422;2023-04-08T10:34:25;6.50;99.90
23869;DHT22;12115;47.128;15.422;2023-04-08T10:36:55;6.40;99.90
23869;DHT22;12115;47.128;15.422;2023-04-08T10:39:24;6.50;99.90
23869;DHT22;12115;47.128;15.422;2023-04-08T10:41:52;6.50;99.90
23869;DHT22;12115;47.128;15.422;2023-04-08T10:44:24;6.50;99.90
23869;DHT22;12115;47.128;15.422;2023-04-08T10:46:53;6.40;99.90
23869;DHT22;12115;47.128;15.422;2023-04-08T10:49:21;6.50;99.90
23869;DHT22;12115;47.128;15.422;2023-04-08T10:51:48;6.50;99.90
23869;DHT22;12115;47.128;15.422;2023-04-08T10:54:17;6.50;99.90
23869;DHT22;12115;47.128;15.422;2023-04-08T10:56:51;6.60;99.90
23869;DHT22;12115;47.128;15.422;2023-04-08T10:59:30;6.60;99.90
23869;DHT22;12115;47.128;15.422;2023-04-08T11:02:00;6.60;99.90
23869;DHT22;12115;47.128;15.422;2023-04-08T11:04:28;6.70;99.90
23869;DHT22;12115;47.128;15.422;2023-04-08T11:06:56;6.80;99.90
23869;DHT22;12115;47.128;15.422;2023-04-08T11:09:24;6.80;99.90
23869;DHT22;12115;47.128;15.422;2023-04-08T11:11:52;6.80;99.90
23869;DHT22;12115;47.128;15.422;2023-04-08T11:14:19;6.90;99.90
23869;DHT22;12115;47.128;15.422;2023-04-08T11:16:48;7.00;99.90
23869;DHT22;12115;47.128;15.422;2023-04-08T11:19:16;7.00;99.90
23869;DHT22;12115;47.128;15.422;2023-04-08T11:21:44;7.10;99.90
23869;DHT22;12115;47.128;15.422;2023-04-08T11:24:13;7.20;99.90
23869;DHT22;12115;47.128;15.422;2023-04-08T11:26:41;7.30;99.90
23869;DHT22;12115;47.128;15.422;2023-04-08T11:29:10;7.40;99.90
23869;DHT22;12115;47.128;15.422;2023-04-08T11:31:42;7.40;99.90
23869;DHT22;12115;47.128;15.422;2023-04-08T11:34:10;7.30;99.90
23869;DHT22;12115;47.128;15.422;2023-04-08T11:36:40;7.40;99.90
23869;DHT22;12115;47.128;15.422;2023-04-08T11:39:08;7.30;99.90
23869;DHT22;12115;47.128;15.422;2023-04-08T11:41:38;7.20;99.90
23869;DHT22;12115;47.128;15.422;2023-04-08T11:44:09;7.20;99.90
23869;DHT22;12115;47.128;15.422;2023-04-08T11:46:36;7.20;99.90
23869;DHT22;12115;47.128;15.422;2023-04-08T11:49:05;7.10;99.90
23869;DHT22;12115;47.128;15.422;2023-04-08T11:51:34;7.20;99.90
23869;DHT22;12115;47.128;15.422;2023-04-08T11:54:30;7.20;99.90
23869;DHT22;12115;47.128;15.422;2023-04-08T11:56:58;7.10;99.90
23869;DHT22;12115;47.128;15.422;2023-04-08T11:59:30;7.20;99.90
23869;DHT22;12115;47.128;15.422;2023-04-08T12:01:57;7.20;99.90
23869;DHT22;12115;47.128;15.422;2023-04-08T12:04:25;7.20;99.90
23869;DHT22;12115;47.128;15.422;2023-04-08T12:06:52;7.00;99.90
23869;DHT22;12115;47.128;15.422;2023-04-08T12:09:22;7.10;99.90
23869;DHT22;12115;47.128;15.422;2023-04-08T12:11:49;7.10;99.90
23869;DHT22;12115;47.128;15.422;2023-04-08T12:14:16;7.10;99.90
23869;DHT22;12115;47.128;15.422;2023-04-08T12:16:43;7.10;99.90
23869;DHT22;12115;47.128;15.422;2023-04-08T12:19:11;7.10;99.90
23869;DHT22;12115;47.128;15.422;2023-04-08T12:21:38;7.10;99.90
23869;DHT22;12115;47.128;15.422;2023-04-08T12:24:31;7.20;99.90
23869;DHT22;12115;47.128;15.422;2023-04-08T12:26:58;7.20;99.90
23869;DHT22;12115;47.128;15.422;2023-04-08T12:29:25;7.20;99.90
23869;DHT22;12115;47.128;15.422;2023-04-08T12:31:54;7.20;99.90
23869;DHT22;12115;47.128;15.422;2023-04-08T12:34:22;7.30;99.90
23869;DHT22;12115;47.128;15.422;2023-04-08T12:37:19;7.30;99.90
23869;DHT22;12115;47.128;15.422;2023-04-08T12:39:55;7.30;99.90
23869;DHT22;12115;47.128;15.422;2023-04-08T12:42:22;7.30;99.90
23869;DHT22;12115;47.128;15.422;2023-04-08T12:44:50;7.30;99.90
23869;DHT22;12115;47.128;15.422;2023-04-08T12:47:17;7.30;99.90
23869;DHT22;12115;47.128;15.422;2023-04-08T12:49:59;7.30;99.90
23869;DHT22;12115;47.128;15.422;2023-04-08T12:52:27;7.30;99.90
23869;DHT22;12115;47.128;15.422;2023-04-08T12:55:19;7.30;99.90
23869;DHT22;12115;47.128;15.422;2023-04-08T12:58:01;7.20;99.90
23869;DHT22;12115;47.128;15.422;2023-04-08T13:00:28;7.20;99.90
23869;DHT22;12115;47.128;15.422;2023-04-08T13:03:21;7.20;99.90
23869;DHT22;12115;47.128;15.422;2023-04-08T13:05:49;7.20;99.90
23869;DHT22;12115;47.128;15.422;2023-04-08T13:08:16;7.10;99.90
23869;DHT22;12115;47.128;15.422;2023-04-08T13:10:45;7.10;99.90
23869;DHT22;12115;47.128;15.422;2023-04-08T13:13:12;7.00;99.90
23869;DHT22;12115;47.128;15.422;2023-04-08T13:15:42;7.00;99.90
23869;DHT22;12115;47.128;15.422;2023-04-08T13:18:09;6.90;99.90
23869;DHT22;12115;47.128;15.422;2023-04-08T13:20:37;6.90;99.90
23869;DHT22;12115;47.128;15.422;2023-04-08T13:23:04;6.90;99.90
23869;DHT22;12115;47.128;15.422;2023-04-08T13:25:32;6.90;99.90
23869;DHT22;12115;47.128;15.422;2023-04-08T13:27:59;6.70;99.90
23869;DHT22;12115;47.128;15.422;2023-04-08T13:30:27;6.60;99.90
23869;DHT22;12115;47.128;15.422;2023-04-08T13:33:03;6.60;99.90
23869;DHT22;12115;47.128;15.422;2023-04-08T13:35:31;6.70;99.90
23869;DHT22;12115;47.128;15.422;2023-04-08T13:37:58;6.70;99.90
23869;DHT22;12115;47.128;15.422;2023-04-08T13:40:26;6.60;99.90
23869;DHT22;12115;47.128;15.422;2023-04-08T13:43:02;6.70;99.90
23869;DHT22;12115;47.128;15.422;2023-04-08T13:45:29;6.70;99.90
23869;DHT22;12115;47.128;15.422;2023-04-08T13:47:57;6.60;99.90
23869;DHT22;12115;47.128;15.422;2023-04-08T13:50:25;6.50;99.90
23869;DHT22;12115;47.128;15.422;2023-04-08T13:53:02;6.50;99.90
23869;DHT22;12115;47.128;15.422;2023-04-08T13:55:29;6.50;99.90
23869;DHT22;12115;47.128;15.422;2023-04-08T13:57:57;6.50;99.90
23869;DHT22;12115;47.128;15.422;2023-04-08T14:00:24;6.50;99.90
23869;DHT22;12115;47.128;15.422;2023-04-08T14:02:52;6.50;99.90
23869;DHT22;12115;47.128;15.422;2023-04-08T14:05:20;6.50;99.90
23869;DHT22;12115;47.128;15.422;2023-04-08T14:07:53;6.60;99.90
23869;DHT22;12115;47.128;15.422;2023-04-08T14:10:20;6.50;99.90
23869;DHT22;12115;47.128;15.422;2023-04-08T14:12:48;6.50;99.90
23869;DHT22;12115;47.128;15.422;2023-04-08T14:15:15;6.60;99.90
23869;DHT22;12115;47.128;15.422;2023-04-08T14:17:42;6.50;99.90
23869;DHT22;12115;47.128;15.422;2023-04-08T14:20:10;6.50;99.90
23869;DHT22;12115;47.128;15.422;2023-04-08T14:22:43;6.50;99.90
23869;DHT22;12115;47.128;15.422;2023-04-08T14:25:10;6.40;99.90
23869;DHT22;12115;47.128;15.422;2023-04-08T14:27:38;6.30;99.90
23869;DHT22;12115;47.128;15.422;2023-04-08T14:30:20;6.40;99.90
23869;DHT22;12115;47.128;15.422;2023-04-08T14:32:48;6.40;99.90
23869;DHT22;12115;47.128;15.422;2023-04-08T14:35:15;6.40;99.90
23869;DHT22;12115;47.128;15.422;2023-04-08T14:37:58;6.40;99.90
23869;DHT22;12115;47.128;15.422;2023-04-08T14:40:26;6.40;99.90
23869;DHT22;12115;47.128;15.422;2023-04-08T14:42:53;6.40;99.90
23869;DHT22;12115;47.128;15.422;2023-04-08T14:45:20;6.40;99.90
23869;DHT22;12115;47.128;15.422;2023-04-08T14:47:47;6.30;99.90
23869;DHT22;12115;47.128;15.422;2023-04-08T14:50:15;6.40;99.90
23869;DHT22;12115;47.128;15.422;2023-04-08T14:52:42;6.40;99.90
23869;DHT22;12115;47.128;15.422;2023-04-08T14:55:11;6.40;99.90
23869;DHT22;12115;47.128;15.422;2023-04-08T14:57:38;6.40;99.90
23869;DHT22;12115;47.128;15.422;2023-04-08T15:00:06;6.40;99.90
23869;DHT22;12115;47.128;15.422;2023-04-08T15:02:34;6.40;99.90
23869;DHT22;12115;47.128;15.422;2023-04-08T15:05:02;6.30;99.90
23869;DHT22;12115;47.128;15.422;2023-04-08T15:07:31;6.30;99.90
23869;DHT22;12115;47.128;15.422;2023-04-08T15:10:01;6.30;99.90
23869;DHT22;12115;47.128;15.422;2023-04-08T15:12:28;6.20;99.90
23869;DHT22;12115;47.128;15.422;2023-04-08T15:15:03;6.20;99.90
23869;DHT22;12115;47.128;15.422;2023-04-08T15:17:30;6.20;99.90
23869;DHT22;12115;47.128;15.422;2023-04-08T15:19:58;6.10;99.90
23869;DHT22;12115;47.128;15.422;2023-04-08T15:22:25;6.00;99.90
23869;DHT22;12115;47.128;15.422;2023-04-08T15:24:53;6.10;99.90
23869;DHT22;12115;47.128;15.422;2023-04-08T15:27:20;6.10;99.90
23869;DHT22;12115;47.128;15.422;2023-04-08T15:29:57;6.10;99.90
23869;DHT22;12115;47.128;15.422;2023-04-08T15:32:28;6.00;99.90
23869;DHT22;12115;47.128;15.422;2023-04-08T15:34:57;6.00;99.90
23869;DHT22;12115;47.128;15.422;2023-04-08T15:37:24;5.90;99.90
23869;DHT22;12115;47.128;15.422;2023-04-08T15:39:57;5.80;99.90
23869;DHT22;12115;47.128;15.422;2023-04-08T15:42:25;5.90;99.90
23869;DHT22;12115;47.128;15.422;2023-04-08T15:44:52;5.80;99.90
23869;DHT22;12115;47.128;15.422;2023-04-08T15:47:19;5.70;99.90
23869;DHT22;12115;47.128;15.422;2023-04-08T15:49:47;5.80;99.90
23869;DHT22;12115;47.128;15.422;2023-04-08T15:52:14;5.90;99.90
23869;DHT22;12115;47.128;15.422;2023-04-08T15:54:43;5.90;99.90
23869;DHT22;12115;47.128;15.422;2023-04-08T15:57:10;5.90;99.90